sensor_id;sensor_type;location;lat;lon;timestamp;P1;durP1;ratioP1;P2;durP2;ratioP2
6755;SDS011;3415;51.148;7.014;2023-02-12T00:01:10;54.25;;;21.27;;
6755;SDS011;3415;51.148;7.014;2023-02-12T00:03:38;44.97;;;18.50;;
6755;SDS011;3415;51.148;7.014;2023-02-12T00:06:05;57.30;;;23.08;;
6755;SDS011;3415;51.148;7.014;2023-02-12T00:08:34;60.20;;;22.60;;
6755;SDS011;3415;51.148;7.014;2023-02-12T00:11:06;63.07;;;22.03;;
6755;SDS011;3415;51.148;7.014;2023-02-12T00:13:34;53.73;;;23.63;;
6755;SDS011;3415;51.148;7.014;2023-02-12T00:16:03;50.17;;;20.93;;
6755;SDS011;3415;51.148;7.014;2023-02-12T00:18:30;64.20;;;22.53;;
6755;SDS011;3415;51.148;7.014;2023-02-12T00:20:57;48.33;;;20.07;;
6755;SDS011;3415;51.148;7.014;2023-02-12T00:23:25;56.50;;;22.00;;
6755;SDS011;3415;51.148;7.014;2023-02-12T00:25:53;54.63;;;20.30;;
6755;SDS011;3415;51.148;7.014;2023-02-12T00:28:20;54.27;;;21.93;;
6755;SDS011;3415;51.148;7.014;2023-02-12T00:30:47;56.37;;;20.87;;
6755;SDS011;3415;51.148;7.014;2023-02-12T00:33:14;56.57;;;21.20;;
6755;SDS011;3415;51.148;7.014;2023-02-12T00:35:41;60.33;;;21.10;;
6755;SDS011;3415;51.148;7.014;2023-02-12T00:38:08;52.40;;;20.92;;
6755;SDS011;3415;51.148;7.014;2023-02-12T00:40:34;54.83;;;22.27;;
6755;SDS011;3415;51.148;7.014;2023-02-12T00:43:02;52.00;;;21.20;;
6755;SDS011;3415;51.148;7.014;2023-02-12T00:45:30;57.90;;;22.70;;
6755;SDS011;3415;51.148;7.014;2023-02-12T00:47:56;55.23;;;20.80;;
6755;SDS011;3415;51.148;7.014;2023-02-12T00:50:24;57.53;;;20.70;;
6755;SDS011;3415;51.148;7.014;2023-02-12T00:52:50;64.23;;;20.87;;
6755;SDS011;3415;51.148;7.014;2023-02-12T00:55:17;55.70;;;22.70;;
6755;SDS011;3415;51.148;7.014;2023-02-12T00:57:44;56.53;;;19.03;;
6755;SDS011;3415;51.148;7.014;2023-02-12T01:00:13;61.75;;;21.75;;
6755;SDS011;3415;51.148;7.014;2023-02-12T01:02:41;49.37;;;20.07;;
6755;SDS011;3415;51.148;7.014;2023-02-12T01:05:07;52.97;;;20.60;;
6755;SDS011;3415;51.148;7.014;2023-02-12T01:07:34;57.80;;;20.53;;
6755;SDS011;3415;51.148;7.014;2023-02-12T01:10:02;52.10;;;21.13;;
6755;SDS011;3415;51.148;7.014;2023-02-12T01:12:30;53.17;;;21.43;;
6755;SDS011;3415;51.148;7.014;2023-02-12T01:14:57;52.17;;;21.20;;
6755;SDS011;3415;51.148;7.014;2023-02-12T01:17:25;58.00;;;23.40;;
6755;SDS011;3415;51.148;7.014;2023-02-12T01:19:55;58.63;;;20.57;;
6755;SDS011;3415;51.148;7.014;2023-02-12T01:22:22;52.57;;;22.67;;
6755;SDS011;3415;51.148;7.014;2023-02-12T01:24:49;61.27;;;23.37;;
6755;SDS011;3415;51.148;7.014;2023-02-12T01:27:16;60.20;;;22.73;;
6755;SDS011;3415;51.148;7.014;2023-02-12T01:29:43;60.00;;;21.60;;
6755;SDS011;3415;51.148;7.014;2023-02-12T01:32:10;48.30;;;20.00;;
6755;SDS011;3415;51.148;7.014;2023-02-12T01:34:38;47.03;;;21.20;;
6755;SDS011;3415;51.148;7.014;2023-02-12T01:37:05;57.30;;;19.77;;
6755;SDS011;3415;51.148;7.014;2023-02-12T01:39:32;53.60;;;20.40;;
6755;SDS011;3415;51.148;7.014;2023-02-12T01:42:00;50.13;;;20.33;;
6755;SDS011;3415;51.148;7.014;2023-02-12T01:44:27;55.00;;;19.57;;
6755;SDS011;3415;51.148;7.014;2023-02-12T01:46:56;62.30;;;22.90;;
6755;SDS011;3415;51.148;7.014;2023-02-12T01:49:25;61.90;;;21.57;;
6755;SDS011;3415;51.148;7.014;2023-02-12T01:51:58;64.43;;;21.83;;
6755;SDS011;3415;51.148;7.014;2023-02-12T01:54:32;55.80;;;21.73;;
6755;SDS011;3415;51.148;7.014;2023-02-12T01:57:00;52.60;;;20.23;;
6755;SDS011;3415;51.148;7.014;2023-02-12T01:59:30;45.60;;;18.97;;
6755;SDS011;3415;51.148;7.014;2023-02-12T02:01:57;50.50;;;20.83;;
6755;SDS011;3415;51.148;7.014;2023-02-12T02:04:25;45.58;;;19.80;;
6755;SDS011;3415;51.148;7.014;2023-02-12T02:06:56;63.13;;;21.63;;
6755;SDS011;3415;51.148;7.014;2023-02-12T02:09:27;58.47;;;21.10;;
6755;SDS011;3415;51.148;7.014;2023-02-12T02:11:55;48.60;;;18.70;;
6755;SDS011;3415;51.148;7.014;2023-02-12T02:14:39;57.57;;;19.80;;
6755;SDS011;3415;51.148;7.014;2023-02-12T02:17:23;59.58;;;21.58;;
6755;SDS011;3415;51.148;7.014;2023-02-12T02:20:08;57.90;;;20.27;;
6755;SDS011;3415;51.148;7.014;2023-02-12T02:23:03;60.20;;;19.60;;
6755;SDS011;3415;51.148;7.014;2023-02-12T02:25:48;50.27;;;20.43;;
6755;SDS011;3415;51.148;7.014;2023-02-12T02:31:25;51.47;;;20.67;;
6755;SDS011;3415;51.148;7.014;2023-02-12T02:33:58;55.30;;;20.60;;
6755;SDS011;3415;51.148;7.014;2023-02-12T02:36:30;52.83;;;20.40;;
6755;SDS011;3415;51.148;7.014;2023-02-12T02:39:03;65.00;;;20.60;;
6755;SDS011;3415;51.148;7.014;2023-02-12T02:41:37;55.33;;;20.53;;
6755;SDS011;3415;51.148;7.014;2023-02-12T02:44:11;60.43;;;19.93;;
6755;SDS011;3415;51.148;7.014;2023-02-12T02:46:44;57.53;;;18.75;;
6755;SDS011;3415;51.148;7.014;2023-02-12T02:49:13;55.37;;;19.23;;
6755;SDS011;3415;51.148;7.014;2023-02-12T02:51:46;56.65;;;20.10;;
6755;SDS011;3415;51.148;7.014;2023-02-12T02:54:17;51.77;;;20.30;;
6755;SDS011;3415;51.148;7.014;2023-02-12T02:56:47;51.97;;;19.43;;
6755;SDS011;3415;51.148;7.014;2023-02-12T02:59:18;57.03;;;19.67;;
6755;SDS011;3415;51.148;7.014;2023-02-12T03:01:51;56.43;;;19.60;;
6755;SDS011;3415;51.148;7.014;2023-02-12T03:04:23;63.15;;;20.88;;
6755;SDS011;3415;51.148;7.014;2023-02-12T03:06:57;51.20;;;20.33;;
6755;SDS011;3415;51.148;7.014;2023-02-12T03:09:29;51.07;;;19.63;;
6755;SDS011;3415;51.148;7.014;2023-02-12T03:12:02;48.40;;;18.50;;
6755;SDS011;3415;51.148;7.014;2023-02-12T03:14:34;54.30;;;20.63;;
6755;SDS011;3415;51.148;7.014;2023-02-12T03:17:06;53.87;;;21.77;;
6755;SDS011;3415;51.148;7.014;2023-02-12T03:19:38;57.87;;;19.90;;
6755;SDS011;3415;51.148;7.014;2023-02-12T03:22:10;48.60;;;20.40;;
6755;SDS011;3415;51.148;7.014;2023-02-12T03:24:42;52.78;;;21.67;;
6755;SDS011;3415;51.148;7.014;2023-02-12T03:27:13;59.13;;;21.60;;
6755;SDS011;3415;51.148;7.014;2023-02-12T03:29:45;52.10;;;20.53;;
6755;SDS011;3415;51.148;7.014;2023-02-12T03:32:20;62.63;;;22.40;;
6755;SDS011;3415;51.148;7.014;2023-02-12T03:34:56;62.70;;;20.27;;
6755;SDS011;3415;51.148;7.014;2023-02-12T03:37:34;52.07;;;20.67;;
6755;SDS011;3415;51.148;7.014;2023-02-12T03:40:05;59.13;;;20.67;;
6755;SDS011;3415;51.148;7.014;2023-02-12T03:42:40;61.20;;;23.13;;
6755;SDS011;3415;51.148;7.014;2023-02-12T03:45:15;59.03;;;21.70;;
6755;SDS011;3415;51.148;7.014;2023-02-12T03:47:52;64.38;;;21.25;;
6755;SDS011;3415;51.148;7.014;2023-02-12T03:50:30;63.33;;;22.90;;
6755;SDS011;3415;51.148;7.014;2023-02-12T03:53:02;59.40;;;22.10;;
6755;SDS011;3415;51.148;7.014;2023-02-12T03:55:30;61.97;;;22.30;;
6755;SDS011;3415;51.148;7.014;2023-02-12T03:57:59;64.83;;;22.83;;
6755;SDS011;3415;51.148;7.014;2023-02-12T04:00:28;55.05;;;20.58;;
6755;SDS011;3415;51.148;7.014;2023-02-12T04:02:57;63.23;;;21.17;;
6755;SDS011;3415;51.148;7.014;2023-02-12T04:05:25;57.37;;;20.70;;
6755;SDS011;3415;51.148;7.014;2023-02-12T04:07:53;58.75;;;20.45;;
6755;SDS011;3415;51.148;7.014;2023-02-12T04:10:24;61.47;;;21.33;;
6755;SDS011;3415;51.148;7.014;2023-02-12T04:12:56;53.43;;;20.13;;
6755;SDS011;3415;51.148;7.014;2023-02-12T04:15:36;56.43;;;22.13;;
6755;SDS011;3415;51.148;7.014;2023-02-12T04:18:16;57.80;;;21.57;;
6755;SDS011;3415;51.148;7.014;2023-02-12T04:20:48;60.50;;;22.13;;
6755;SDS011;3415;51.148;7.014;2023-02-12T04:23:26;67.80;;;23.00;;
6755;SDS011;3415;51.148;7.014;2023-02-12T04:26:16;62.83;;;22.00;;
6755;SDS011;3415;51.148;7.014;2023-02-12T04:28:51;60.50;;;22.43;;
6755;SDS011;3415;51.148;7.014;2023-02-12T04:31:30;66.47;;;25.30;;
6755;SDS011;3415;51.148;7.014;2023-02-12T04:34:06;61.13;;;21.70;;
6755;SDS011;3415;51.148;7.014;2023-02-12T04:36:39;59.43;;;21.70;;
6755;SDS011;3415;51.148;7.014;2023-02-12T04:39:11;59.37;;;20.13;;
6755;SDS011;3415;51.148;7.014;2023-02-12T04:41:43;68.30;;;23.87;;
6755;SDS011;3415;51.148;7.014;2023-02-12T04:44:16;63.67;;;23.20;;
6755;SDS011;3415;51.148;7.014;2023-02-12T04:46:47;56.70;;;20.77;;
6755;SDS011;3415;51.148;7.014;2023-02-12T04:49:16;61.10;;;22.30;;
6755;SDS011;3415;51.148;7.014;2023-02-12T04:51:44;54.33;;;20.07;;
6755;SDS011;3415;51.148;7.014;2023-02-12T04:54:12;58.47;;;19.27;;
6755;SDS011;3415;51.148;7.014;2023-02-12T04:56:39;70.13;;;22.00;;
6755;SDS011;3415;51.148;7.014;2023-02-12T04:59:06;51.30;;;19.90;;
6755;SDS011;3415;51.148;7.014;2023-02-12T05:01:34;66.73;;;21.83;;
6755;SDS011;3415;51.148;7.014;2023-02-12T05:04:01;57.67;;;21.33;;
6755;SDS011;3415;51.148;7.014;2023-02-12T05:06:31;60.10;;;23.15;;
6755;SDS011;3415;51.148;7.014;2023-02-12T05:09:00;59.67;;;20.70;;
6755;SDS011;3415;51.148;7.014;2023-02-12T05:11:27;55.90;;;21.60;;
6755;SDS011;3415;51.148;7.014;2023-02-12T05:13:54;56.60;;;20.40;;
6755;SDS011;3415;51.148;7.014;2023-02-12T05:16:21;53.75;;;21.73;;
6755;SDS011;3415;51.148;7.014;2023-02-12T05:18:48;53.70;;;21.20;;
6755;SDS011;3415;51.148;7.014;2023-02-12T05:21:15;61.47;;;21.25;;
6755;SDS011;3415;51.148;7.014;2023-02-12T05:23:44;53.57;;;19.70;;
6755;SDS011;3415;51.148;7.014;2023-02-12T05:26:11;51.70;;;21.67;;
6755;SDS011;3415;51.148;7.014;2023-02-12T05:28:39;65.13;;;22.13;;
6755;SDS011;3415;51.148;7.014;2023-02-12T05:31:06;57.33;;;21.60;;
6755;SDS011;3415;51.148;7.014;2023-02-12T05:33:35;56.30;;;20.75;;
6755;SDS011;3415;51.148;7.014;2023-02-12T05:36:02;57.97;;;21.20;;
6755;SDS011;3415;51.148;7.014;2023-02-12T05:38:30;56.40;;;22.27;;
6755;SDS011;3415;51.148;7.014;2023-02-12T05:41:01;52.90;;;21.20;;
6755;SDS011;3415;51.148;7.014;2023-02-12T05:43:28;47.37;;;18.57;;
6755;SDS011;3415;51.148;7.014;2023-02-12T05:45:57;67.10;;;22.80;;
6755;SDS011;3415;51.148;7.014;2023-02-12T05:48:24;50.90;;;21.57;;
6755;SDS011;3415;51.148;7.014;2023-02-12T05:50:51;52.03;;;21.17;;
6755;SDS011;3415;51.148;7.014;2023-02-12T05:53:18;52.77;;;19.30;;
6755;SDS011;3415;51.148;7.014;2023-02-12T05:55:45;56.70;;;24.77;;
6755;SDS011;3415;51.148;7.014;2023-02-12T05:58:13;57.75;;;21.80;;
6755;SDS011;3415;51.148;7.014;2023-02-12T06:00:39;51.37;;;20.20;;
6755;SDS011;3415;51.148;7.014;2023-02-12T06:03:06;53.77;;;21.17;;
6755;SDS011;3415;51.148;7.014;2023-02-12T06:05:33;48.70;;;19.57;;
6755;SDS011;3415;51.148;7.014;2023-02-12T06:08:00;55.27;;;23.63;;
6755;SDS011;3415;51.148;7.014;2023-02-12T06:10:27;55.20;;;22.48;;
6755;SDS011;3415;51.148;7.014;2023-02-12T06:12:53;61.00;;;20.25;;
6755;SDS011;3415;51.148;7.014;2023-02-12T06:15:23;58.07;;;21.50;;
6755;SDS011;3415;51.148;7.014;2023-02-12T06:17:49;62.50;;;21.30;;
6755;SDS011;3415;51.148;7.014;2023-02-12T06:20:16;65.97;;;21.73;;
6755;SDS011;3415;51.148;7.014;2023-02-12T06:22:43;52.00;;;20.30;;
6755;SDS011;3415;51.148;7.014;2023-02-12T06:25:10;61.10;;;21.37;;
6755;SDS011;3415;51.148;7.014;2023-02-12T06:27:37;60.63;;;23.80;;
6755;SDS011;3415;51.148;7.014;2023-02-12T06:30:04;56.43;;;20.13;;
6755;SDS011;3415;51.148;7.014;2023-02-12T06:32:33;57.90;;;20.77;;
6755;SDS011;3415;51.148;7.014;2023-02-12T06:34:59;59.20;;;22.97;;
6755;SDS011;3415;51.148;7.014;2023-02-12T06:37:26;49.33;;;20.07;;
6755;SDS011;3415;51.148;7.014;2023-02-12T06:39:53;61.40;;;18.37;;
6755;SDS011;3415;51.148;7.014;2023-02-12T06:42:20;57.42;;;20.08;;
6755;SDS011;3415;51.148;7.014;2023-02-12T06:44:46;51.00;;;20.30;;
6755;SDS011;3415;51.148;7.014;2023-02-12T06:47:13;45.10;;;19.37;;
6755;SDS011;3415;51.148;7.014;2023-02-12T06:49:41;50.13;;;20.80;;
6755;SDS011;3415;51.148;7.014;2023-02-12T06:52:08;59.03;;;22.47;;
6755;SDS011;3415;51.148;7.014;2023-02-12T06:54:35;56.70;;;22.37;;
6755;SDS011;3415;51.148;7.014;2023-02-12T06:57:02;53.15;;;20.52;;
6755;SDS011;3415;51.148;7.014;2023-02-12T06:59:29;56.87;;;20.70;;
6755;SDS011;3415;51.148;7.014;2023-02-12T07:01:56;50.90;;;21.30;;
6755;SDS011;3415;51.148;7.014;2023-02-12T07:04:22;55.50;;;20.37;;
6755;SDS011;3415;51.148;7.014;2023-02-12T07:06:51;58.60;;;21.70;;
6755;SDS011;3415;51.148;7.014;2023-02-12T07:09:17;55.67;;;19.90;;
6755;SDS011;3415;51.148;7.014;2023-02-12T07:11:44;61.00;;;22.13;;
6755;SDS011;3415;51.148;7.014;2023-02-12T07:14:12;55.65;;;20.42;;
6755;SDS011;3415;51.148;7.014;2023-02-12T07:16:40;51.17;;;18.70;;
6755;SDS011;3415;51.148;7.014;2023-02-12T07:19:08;52.70;;;20.10;;
6755;SDS011;3415;51.148;7.014;2023-02-12T07:21:38;48.58;;;20.80;;
6755;SDS011;3415;51.148;7.014;2023-02-12T07:24:06;51.60;;;19.50;;
6755;SDS011;3415;51.148;7.014;2023-02-12T07:26:35;52.05;;;19.80;;
6755;SDS011;3415;51.148;7.014;2023-02-12T07:29:03;51.28;;;21.38;;
6755;SDS011;3415;51.148;7.014;2023-02-12T07:31:30;44.70;;;19.90;;
6755;SDS011;3415;51.148;7.014;2023-02-12T07:33:57;48.83;;;20.17;;
6755;SDS011;3415;51.148;7.014;2023-02-12T07:36:25;53.57;;;20.30;;
6755;SDS011;3415;51.148;7.014;2023-02-12T07:38:54;50.83;;;19.30;;
6755;SDS011;3415;51.148;7.014;2023-02-12T07:41:24;56.53;;;20.80;;
6755;SDS011;3415;51.148;7.014;2023-02-12T07:43:54;52.27;;;19.60;;
6755;SDS011;3415;51.148;7.014;2023-02-12T07:46:22;60.07;;;22.07;;
6755;SDS011;3415;51.148;7.014;2023-02-12T07:48:53;60.43;;;22.03;;
6755;SDS011;3415;51.148;7.014;2023-02-12T07:51:21;53.60;;;20.63;;
6755;SDS011;3415;51.148;7.014;2023-02-12T07:53:48;56.93;;;21.87;;
6755;SDS011;3415;51.148;7.014;2023-02-12T07:56:16;52.07;;;18.97;;
6755;SDS011;3415;51.148;7.014;2023-02-12T07:58:46;64.68;;;22.60;;
6755;SDS011;3415;51.148;7.014;2023-02-12T08:01:15;60.33;;;24.73;;
6755;SDS011;3415;51.148;7.014;2023-02-12T08:03:44;66.43;;;24.17;;
6755;SDS011;3415;51.148;7.014;2023-02-12T08:06:12;61.27;;;25.53;;
6755;SDS011;3415;51.148;7.014;2023-02-12T08:08:40;62.37;;;25.53;;
6755;SDS011;3415;51.148;7.014;2023-02-12T08:11:08;68.60;;;26.60;;
6755;SDS011;3415;51.148;7.014;2023-02-12T08:13:35;64.28;;;24.27;;
6755;SDS011;3415;51.148;7.014;2023-02-12T08:16:06;60.93;;;25.37;;
6755;SDS011;3415;51.148;7.014;2023-02-12T08:18:34;64.30;;;24.17;;
6755;SDS011;3415;51.148;7.014;2023-02-12T08:21:02;57.80;;;21.93;;
6755;SDS011;3415;51.148;7.014;2023-02-12T08:23:29;54.40;;;20.30;;
6755;SDS011;3415;51.148;7.014;2023-02-12T08:26:07;54.70;;;21.57;;
6755;SDS011;3415;51.148;7.014;2023-02-12T08:28:35;52.70;;;21.43;;
6755;SDS011;3415;51.148;7.014;2023-02-12T08:31:05;57.13;;;22.40;;
6755;SDS011;3415;51.148;7.014;2023-02-12T08:33:33;49.23;;;20.30;;
6755;SDS011;3415;51.148;7.014;2023-02-12T08:36:00;67.47;;;22.20;;
6755;SDS011;3415;51.148;7.014;2023-02-12T08:38:29;59.30;;;21.47;;
6755;SDS011;3415;51.148;7.014;2023-02-12T08:40:59;52.13;;;18.93;;
6755;SDS011;3415;51.148;7.014;2023-02-12T08:43:26;55.50;;;21.97;;
6755;SDS011;3415;51.148;7.014;2023-02-12T08:45:53;60.38;;;21.17;;
6755;SDS011;3415;51.148;7.014;2023-02-12T08:48:23;57.43;;;21.93;;
6755;SDS011;3415;51.148;7.014;2023-02-12T08:50:49;50.40;;;21.53;;
6755;SDS011;3415;51.148;7.014;2023-02-12T08:53:16;59.43;;;20.60;;
6755;SDS011;3415;51.148;7.014;2023-02-12T08:55:46;52.53;;;21.10;;
6755;SDS011;3415;51.148;7.014;2023-02-12T08:58:14;53.70;;;21.70;;
6755;SDS011;3415;51.148;7.014;2023-02-12T09:00:41;56.33;;;22.33;;
6755;SDS011;3415;51.148;7.014;2023-02-12T09:03:08;60.13;;;22.63;;
6755;SDS011;3415;51.148;7.014;2023-02-12T09:05:38;58.63;;;22.03;;
6755;SDS011;3415;51.148;7.014;2023-02-12T09:08:05;54.40;;;19.97;;
6755;SDS011;3415;51.148;7.014;2023-02-12T09:10:32;57.03;;;21.27;;
6755;SDS011;3415;51.148;7.014;2023-02-12T09:12:59;58.23;;;20.03;;
6755;SDS011;3415;51.148;7.014;2023-02-12T09:15:26;58.92;;;22.20;;
6755;SDS011;3415;51.148;7.014;2023-02-12T09:17:52;51.57;;;22.10;;
6755;SDS011;3415;51.148;7.014;2023-02-12T09:20:19;54.80;;;21.20;;
6755;SDS011;3415;51.148;7.014;2023-02-12T09:22:47;51.27;;;20.83;;
6755;SDS011;3415;51.148;7.014;2023-02-12T09:25:14;42.03;;;19.27;;
6755;SDS011;3415;51.148;7.014;2023-02-12T09:27:41;46.90;;;21.07;;
6755;SDS011;3415;51.148;7.014;2023-02-12T09:30:08;50.93;;;19.70;;
6755;SDS011;3415;51.148;7.014;2023-02-12T09:32:36;47.87;;;18.50;;
6755;SDS011;3415;51.148;7.014;2023-02-12T09:35:03;42.37;;;18.87;;
6755;SDS011;3415;51.148;7.014;2023-02-12T09:37:30;49.03;;;21.07;;
6755;SDS011;3415;51.148;7.014;2023-02-12T09:39:58;53.40;;;21.33;;
6755;SDS011;3415;51.148;7.014;2023-02-12T09:42:28;45.70;;;20.73;;
6755;SDS011;3415;51.148;7.014;2023-02-12T09:45:09;45.93;;;19.70;;
6755;SDS011;3415;51.148;7.014;2023-02-12T09:47:42;42.55;;;17.80;;
6755;SDS011;3415;51.148;7.014;2023-02-12T09:50:20;44.60;;;16.87;;
6755;SDS011;3415;51.148;7.014;2023-02-12T09:52:56;42.10;;;18.67;;
6755;SDS011;3415;51.148;7.014;2023-02-12T09:55:26;50.97;;;18.60;;
6755;SDS011;3415;51.148;7.014;2023-02-12T09:57:56;37.53;;;18.00;;
6755;SDS011;3415;51.148;7.014;2023-02-12T10:00:24;41.33;;;19.10;;
6755;SDS011;3415;51.148;7.014;2023-02-12T10:02:55;39.80;;;17.50;;
6755;SDS011;3415;51.148;7.014;2023-02-12T10:05:26;35.57;;;16.77;;
6755;SDS011;3415;51.148;7.014;2023-02-12T10:08:05;42.50;;;18.87;;
6755;SDS011;3415;51.148;7.014;2023-02-12T10:10:48;39.70;;;20.43;;
6755;SDS011;3415;51.148;7.014;2023-02-12T10:13:20;35.73;;;17.87;;
6755;SDS011;3415;51.148;7.014;2023-02-12T10:15:57;43.00;;;20.20;;
6755;SDS011;3415;51.148;7.014;2023-02-12T10:18:34;36.13;;;17.03;;
6755;SDS011;3415;51.148;7.014;2023-02-12T10:21:17;33.83;;;17.00;;
6755;SDS011;3415;51.148;7.014;2023-02-12T10:24:02;35.10;;;16.70;;
6755;SDS011;3415;51.148;7.014;2023-02-12T10:26:41;33.73;;;15.83;;
6755;SDS011;3415;51.148;7.014;2023-02-12T10:29:13;33.37;;;15.10;;
6755;SDS011;3415;51.148;7.014;2023-02-12T10:31:44;32.40;;;15.27;;
6755;SDS011;3415;51.148;7.014;2023-02-12T10:34:14;33.38;;;13.95;;
6755;SDS011;3415;51.148;7.014;2023-02-12T10:36:45;30.07;;;14.60;;
6755;SDS011;3415;51.148;7.014;2023-02-12T10:39:15;33.70;;;15.87;;
6755;SDS011;3415;51.148;7.014;2023-02-12T10:41:48;31.70;;;14.33;;
6755;SDS011;3415;51.148;7.014;2023-02-12T10:44:19;29.37;;;14.10;;
6755;SDS011;3415;51.148;7.014;2023-02-12T10:46:46;32.90;;;14.37;;
6755;SDS011;3415;51.148;7.014;2023-02-12T10:49:14;27.70;;;14.07;;
6755;SDS011;3415;51.148;7.014;2023-02-12T10:51:49;25.77;;;13.40;;
6755;SDS011;3415;51.148;7.014;2023-02-12T10:54:32;22.90;;;11.70;;
6755;SDS011;3415;51.148;7.014;2023-02-12T10:57:11;22.80;;;12.00;;
6755;SDS011;3415;51.148;7.014;2023-02-12T10:59:41;29.17;;;12.68;;
6755;SDS011;3415;51.148;7.014;2023-02-12T11:02:17;28.70;;;14.17;;
6755;SDS011;3415;51.148;7.014;2023-02-12T11:04:47;29.43;;;11.90;;
6755;SDS011;3415;51.148;7.014;2023-02-12T11:07:14;28.33;;;11.83;;
6755;SDS011;3415;51.148;7.014;2023-02-12T11:09:42;31.70;;;13.80;;
6755;SDS011;3415;51.148;7.014;2023-02-12T11:12:19;25.73;;;13.13;;
6755;SDS011;3415;51.148;7.014;2023-02-12T11:14:54;27.80;;;12.70;;
6755;SDS011;3415;51.148;7.014;2023-02-12T11:17:24;26.27;;;13.30;;
6755;SDS011;3415;51.148;7.014;2023-02-12T11:22:52;30.27;;;13.50;;
6755;SDS011;3415;51.148;7.014;2023-02-12T11:25:22;27.87;;;14.10;;
6755;SDS011;3415;51.148;7.014;2023-02-12T11:27:59;27.53;;;12.80;;
6755;SDS011;3415;51.148;7.014;2023-02-12T11:30:28;27.13;;;12.40;;
6755;SDS011;3415;51.148;7.014;2023-02-12T11:33:05;25.93;;;11.87;;
6755;SDS011;3415;51.148;7.014;2023-02-12T11:35:47;27.43;;;12.30;;
6755;SDS011;3415;51.148;7.014;2023-02-12T11:38:17;19.70;;;11.27;;
6755;SDS011;3415;51.148;7.014;2023-02-12T11:40:49;22.23;;;10.90;;
6755;SDS011;3415;51.148;7.014;2023-02-12T11:43:20;22.00;;;11.10;;
6755;SDS011;3415;51.148;7.014;2023-02-12T11:45:49;22.80;;;10.50;;
6755;SDS011;3415;51.148;7.014;2023-02-12T11:48:21;29.70;;;12.30;;
6755;SDS011;3415;51.148;7.014;2023-02-12T11:50:51;21.33;;;11.13;;
6755;SDS011;3415;51.148;7.014;2023-02-12T11:53:20;27.53;;;10.00;;
6755;SDS011;3415;51.148;7.014;2023-02-12T11:55:52;18.30;;;9.93;;
6755;SDS011;3415;51.148;7.014;2023-02-12T11:58:24;19.40;;;9.90;;
6755;SDS011;3415;51.148;7.014;2023-02-12T12:00:53;28.97;;;12.13;;
6755;SDS011;3415;51.148;7.014;2023-02-12T12:03:28;19.80;;;10.10;;
6755;SDS011;3415;51.148;7.014;2023-02-12T12:06:04;23.03;;;10.13;;
6755;SDS011;3415;51.148;7.014;2023-02-12T12:08:39;21.70;;;10.40;;
6755;SDS011;3415;51.148;7.014;2023-02-12T12:11:11;22.38;;;10.50;;
6755;SDS011;3415;51.148;7.014;2023-02-12T12:13:42;24.02;;;11.10;;
6755;SDS011;3415;51.148;7.014;2023-02-12T12:16:14;23.20;;;10.67;;
6755;SDS011;3415;51.148;7.014;2023-02-12T12:19:04;22.13;;;11.63;;
6755;SDS011;3415;51.148;7.014;2023-02-12T12:21:57;26.70;;;13.27;;
6755;SDS011;3415;51.148;7.014;2023-02-12T12:24:30;24.90;;;10.97;;
6755;SDS011;3415;51.148;7.014;2023-02-12T12:27:07;21.47;;;10.87;;
6755;SDS011;3415;51.148;7.014;2023-02-12T12:30:01;29.93;;;13.67;;
6755;SDS011;3415;51.148;7.014;2023-02-12T12:32:33;21.57;;;12.23;;
6755;SDS011;3415;51.148;7.014;2023-02-12T12:35:06;23.60;;;12.33;;
6755;SDS011;3415;51.148;7.014;2023-02-12T12:37:36;25.60;;;12.70;;
6755;SDS011;3415;51.148;7.014;2023-02-12T12:40:14;27.77;;;12.00;;
6755;SDS011;3415;51.148;7.014;2023-02-12T12:43:00;26.50;;;10.60;;
6755;SDS011;3415;51.148;7.014;2023-02-12T12:45:33;27.50;;;13.33;;
6755;SDS011;3415;51.148;7.014;2023-02-12T12:48:17;28.27;;;11.90;;
6755;SDS011;3415;51.148;7.014;2023-02-12T12:51:01;29.17;;;12.80;;
6755;SDS011;3415;51.148;7.014;2023-02-12T12:53:41;27.70;;;11.80;;
6755;SDS011;3415;51.148;7.014;2023-02-12T12:56:26;21.65;;;10.50;;
6755;SDS011;3415;51.148;7.014;2023-02-12T12:59:12;27.87;;;12.80;;
6755;SDS011;3415;51.148;7.014;2023-02-12T13:02:00;21.27;;;10.23;;
6755;SDS011;3415;51.148;7.014;2023-02-12T13:04:58;24.57;;;11.53;;
6755;SDS011;3415;51.148;7.014;2023-02-12T13:07:46;25.80;;;11.97;;
6755;SDS011;3415;51.148;7.014;2023-02-12T13:10:26;21.90;;;10.83;;
6755;SDS011;3415;51.148;7.014;2023-02-12T13:13:06;24.30;;;11.87;;
6755;SDS011;3415;51.148;7.014;2023-02-12T13:15:41;32.80;;;13.77;;
6755;SDS011;3415;51.148;7.014;2023-02-12T13:18:16;26.67;;;11.30;;
6755;SDS011;3415;51.148;7.014;2023-02-12T13:20:54;23.90;;;12.20;;
6755;SDS011;3415;51.148;7.014;2023-02-12T13:23:28;23.30;;;11.70;;
6755;SDS011;3415;51.148;7.014;2023-02-12T13:26:03;26.00;;;15.30;;
6755;SDS011;3415;51.148;7.014;2023-02-12T13:28:37;28.70;;;15.18;;
6755;SDS011;3415;51.148;7.014;2023-02-12T13:31:08;23.85;;;12.13;;
6755;SDS011;3415;51.148;7.014;2023-02-12T13:33:41;23.83;;;11.30;;
6755;SDS011;3415;51.148;7.014;2023-02-12T13:36:12;23.98;;;11.77;;
6755;SDS011;3415;51.148;7.014;2023-02-12T13:38:41;23.03;;;11.53;;
6755;SDS011;3415;51.148;7.014;2023-02-12T13:41:12;24.77;;;11.17;;
6755;SDS011;3415;51.148;7.014;2023-02-12T13:43:45;28.53;;;10.83;;
6755;SDS011;3415;51.148;7.014;2023-02-12T13:46:23;24.07;;;11.20;;
6755;SDS011;3415;51.148;7.014;2023-02-12T13:48:59;25.00;;;11.20;;
6755;SDS011;3415;51.148;7.014;2023-02-12T13:51:37;21.70;;;10.97;;
6755;SDS011;3415;51.148;7.014;2023-02-12T13:54:24;19.27;;;10.07;;
6755;SDS011;3415;51.148;7.014;2023-02-12T13:57:06;24.23;;;11.10;;
6755;SDS011;3415;51.148;7.014;2023-02-12T13:59:37;20.03;;;9.13;;
6755;SDS011;3415;51.148;7.014;2023-02-12T14:05:25;24.03;;;12.30;;
6755;SDS011;3415;51.148;7.014;2023-02-12T14:07:55;19.67;;;9.63;;
6755;SDS011;3415;51.148;7.014;2023-02-12T14:10:25;19.87;;;10.33;;
6755;SDS011;3415;51.148;7.014;2023-02-12T14:12:56;18.90;;;10.40;;
6755;SDS011;3415;51.148;7.014;2023-02-12T14:15:36;16.27;;;7.73;;
6755;SDS011;3415;51.148;7.014;2023-02-12T14:18:26;22.13;;;9.47;;
6755;SDS011;3415;51.148;7.014;2023-02-12T14:27:20;15.77;;;9.00;;
6755;SDS011;3415;51.148;7.014;2023-02-12T14:41:31;18.35;;;8.70;;
6755;SDS011;3415;51.148;7.014;2023-02-12T14:47:12;17.87;;;8.60;;
6755;SDS011;3415;51.148;7.014;2023-02-12T14:50:12;23.30;;;9.83;;
6755;SDS011;3415;51.148;7.014;2023-02-12T14:52:42;18.23;;;8.50;;
6755;SDS011;3415;51.148;7.014;2023-02-12T14:55:20;19.00;;;8.13;;
6755;SDS011;3415;51.148;7.014;2023-02-12T14:57:50;22.73;;;9.13;;
6755;SDS011;3415;51.148;7.014;2023-02-12T15:00:24;15.37;;;8.87;;
6755;SDS011;3415;51.148;7.014;2023-02-12T15:02:56;18.80;;;6.73;;
6755;SDS011;3415;51.148;7.014;2023-02-12T15:05:28;18.30;;;8.48;;
6755;SDS011;3415;51.148;7.014;2023-02-12T15:07:59;11.57;;;6.47;;
6755;SDS011;3415;51.148;7.014;2023-02-12T15:10:28;10.60;;;6.53;;
6755;SDS011;3415;51.148;7.014;2023-02-12T15:13:05;19.60;;;9.00;;
6755;SDS011;3415;51.148;7.014;2023-02-12T15:15:42;14.18;;;7.93;;
6755;SDS011;3415;51.148;7.014;2023-02-12T15:18:15;10.30;;;5.93;;
6755;SDS011;3415;51.148;7.014;2023-02-12T15:20:47;7.90;;;4.30;;
6755;SDS011;3415;51.148;7.014;2023-02-12T15:23:37;10.90;;;5.17;;
6755;SDS011;3415;51.148;7.014;2023-02-12T15:26:10;11.67;;;6.27;;
6755;SDS011;3415;51.148;7.014;2023-02-12T15:28:40;9.13;;;5.10;;
6755;SDS011;3415;51.148;7.014;2023-02-12T15:31:08;10.63;;;5.03;;
6755;SDS011;3415;51.148;7.014;2023-02-12T15:33:38;13.38;;;6.28;;
6755;SDS011;3415;51.148;7.014;2023-02-12T15:36:09;12.70;;;5.40;;
6755;SDS011;3415;51.148;7.014;2023-02-12T15:38:42;13.40;;;6.07;;
6755;SDS011;3415;51.148;7.014;2023-02-12T15:41:21;11.70;;;6.07;;
6755;SDS011;3415;51.148;7.014;2023-02-12T15:43:51;10.77;;;6.30;;